Flight Track Log - Related Links

Times and Time Zones

All times are in EDT time to prevent confusion due to time zone crossing. See the N572EC flight status page for this flight to view local times or setup timezone preferences in your user account.

Time Position Orientation Groundspeed Altitude Reporting Facility
EDT Latitude Longitude Course Direction KTS MPH feet Rate Location/Type
Sun 02:03:33 PM 34.2656 -83.7622 133° Southeast 204 235 4,200  Level Atlanta Center
Sun 02:04:33 PM 34.2194 -83.7022 133° Southeast 237 273 7,600 3,050 Climbing Atlanta Center
Sun 02:05:33 PM 34.1714 -83.6397 133° Southeast 260 299 10,300 2,550 Climbing Atlanta Center
Sun 02:06:33 PM 34.1169 -83.5697 133° Southeast 284 327 12,700 1,950 Climbing Atlanta Center
Sun 02:07:33 PM 34.0831 -83.4669 112° Southeast 310 357 14,200 1,700 Climbing Atlanta Center
Sun 02:08:33 PM 34.1306 -83.3536 63° Northeast 310 357 16,100 1,850 Climbing Atlanta Center
Sun 02:09:33 PM 34.1986 -83.2478 52° Northeast 351 404 17,900 1,850 Climbing Atlanta Center
Sun 02:10:33 PM 34.2708 -83.1364 52° Northeast 388 447 19,800 2,150 Climbing Atlanta Center
Sun 02:11:33 PM 34.3431 -83.0147 54° Northeast 404 465 22,200 1,750 Climbing Atlanta Center
Sun 02:12:33 PM 34.4131 -82.9058 52° Northeast 412 474 23,300 900 Climbing Atlanta Center
Sun 02:13:33 PM 34.4789 -82.7989 53° Northeast 404 465 24,000 650 Climbing Atlanta Center
Sun 02:14:33 PM 34.5108 -82.6650 74° East 400 460 24,600 1,050 Climbing Atlanta Center
Sun 02:15:33 PM 34.5531 -82.5356 68° East 400 460 26,100 1,450 Climbing Atlanta Center
Sun 02:16:33 PM 34.6014 -82.3958 67° East 423 487 27,500 1,650 Climbing Atlanta Center
Sun 02:17:33 PM 34.6789 -82.2731 52° Northeast 446 513 29,400 2,150 Climbing Atlanta Center
Sun 02:18:33 PM 34.7567 -82.1578 51° Northeast 441 507 31,800 2,350 Climbing Atlanta Center
Sun 02:19:33 PM 34.8342 -82.0447 50° Northeast 436 502 34,100 2,200 Climbing Atlanta Center
Sun 02:20:33 PM 34.8931 -81.9572 51° Northeast 431 496 36,200 2,300 Climbing Atlanta Center
Sun 02:21:33 PM 34.9744 -81.8361 51° Northeast 420 483 38,700 1,950 Climbing Atlanta Center
Sun 02:22:33 PM 35.0456 -81.7325 50° Northeast 410 472 40,100 1,150 Climbing Atlanta Center
Sun 02:23:33 PM 35.1186 -81.6214 51° Northeast 410 472 41,000 450 Climbing Atlanta Center
Sun 02:24:33 PM 35.1956 -81.5072 50° Northeast 417 480 41,000  Level Atlanta Center
Sun 02:25:33 PM 35.2703 -81.3931 51° Northeast 423 487 41,000  Level Atlanta Center
Sun 02:26:33 PM 35.3469 -81.2736 52° Northeast 430 495 41,000  Level Atlanta Center
Sun 02:27:33 PM 35.4236 -81.1564 51° Northeast 437 503 41,000  Level Atlanta Center
Sun 02:28:33 PM 35.5019 -81.0311 52° Northeast 452 520 41,000  Level Atlanta Center
Sun 02:29:33 PM 35.5825 -80.9158 49° Northeast 447 514 41,000  Level Atlanta Center
Sun 02:31:59 PM 35.7769 -80.6228 51° Northeast 447 514 41,000  Level Washington Center
Sun 02:33:00 PM 35.8550 -80.5022 51° Northeast 447 514 41,000  Level Washington Center
Sun 02:34:00 PM 35.9178 -80.3958 54° Northeast 447 514 41,000  Level Washington Center
Sun 02:35:00 PM 36.0017 -80.2778 49° Northeast 447 514 41,000  Level Washington Center
Sun 02:35:58 PM 36.0794 -80.1564 52° Northeast 447 514 41,000  Level Washington Center
Sun 02:36:59 PM 36.1569 -80.0400 50° Northeast 442 509 41,000  Level Washington Center
Sun 02:37:59 PM 36.2386 -79.9133 51° Northeast 450 518 41,000  Level Washington Center
Sun 02:39:00 PM 36.3181 -79.7939 50° Northeast 455 524 41,000  Level Washington Center
Sun 02:40:00 PM 36.4022 -79.6514 54° Northeast 461 531 41,000  Level Washington Center
Sun 02:41:00 PM 36.4794 -79.5261 53° Northeast 461 531 41,000  Level Washington Center
Sun 02:41:58 PM 36.5500 -79.4133 52° Northeast 461 531 41,000  Level Washington Center
Sun 02:42:58 PM 36.6311 -79.2881 51° Northeast 461 531 41,000  Level Washington Center
Sun 02:43:59 PM 36.7100 -79.1597 52° Northeast 461 531 41,000  Level Washington Center
Sun 02:44:59 PM 36.7997 -79.0183 52° Northeast 461 531 41,000  Level Washington Center
Sun 02:45:59 PM 36.8806 -78.8897 52° Northeast 461 531 41,000  Level Washington Center
Sun 02:47:00 PM 36.9753 -78.7767 44° Northeast 461 531 41,000  Level Washington Center
Sun 02:47:58 PM 37.0678 -78.6711 42° Northeast 456 525 41,000  Level Washington Center
Sun 02:48:58 PM 37.1581 -78.5706 42° Northeast 461 531 41,000  Level Washington Center
Sun 02:49:58 PM 37.2525 -78.4619 42° Northeast 461 531 41,000  Level Washington Center
Sun 02:50:59 PM 37.3511 -78.3508 42° Northeast 461 531 41,000  Level Washington Center
Sun 02:52:00 PM 37.4581 -78.2292 42° Northeast 461 531 41,000  Level Washington Center
Sun 02:52:58 PM 37.5500 -78.1222 43° Northeast 455 524 41,000  Level Washington Center
Sun 02:53:59 PM 37.6464 -78.0075 43° Northeast 455 524 41,000  Level Washington Center
Sun 02:54:59 PM 37.7422 -77.8975 42° Northeast 460 529 41,000  Level Washington Center
Sun 02:55:58 PM 37.8383 -77.7847 43° Northeast 460 529 41,000 -350 Level Washington Center
Sun 02:56:59 PM 37.9364 -77.6692 43° Northeast 460 529 40,300 -843 Descending Washington Center
Sun 02:57:59 PM 38.0319 -77.5558 43° Northeast 460 529 39,300 347 Descending Washington Center
Sun 02:59:00 PM 38.1317 -77.4503 40° Northeast 464 534 41,000 -655 Climbing Washington Center
Sun 02:59:58 PM 38.2286 -77.3892 26° Northeast 450 518 38,000 -2,471 Descending Washington Center
Sun 03:00:59 PM 38.3403 -77.3097 29° Northeast 450 518 36,100 -2,200 Descending Washington Center
Sun 03:01:58 PM 38.4458 -77.2114 36° Northeast 456 525 33,600 -2,521 Descending Washington Center
Sun 03:02:58 PM 38.5536 -77.1075 37° Northeast 476 548 31,100 -1,636 Descending Washington Center
Sun 03:03:59 PM 38.6653 -76.9983 37° Northeast 486 559 30,300 -1,587 Descending Washington Center
Sun 03:04:59 PM 38.7728 -76.8936 37° Northeast 494 568 27,900 -2,471 Descending Washington Center
Sun 03:05:58 PM 38.8700 -76.7781 43° Northeast 479 551 25,400 -1,966 Descending Washington Center
Sun 03:06:58 PM 38.9608 -76.6622 45° Northeast 467 537 24,000 -694 Descending Washington Center
Sun 03:07:59 PM 39.0533 -76.5458 44° Northeast 457 526 24,000  Level Washington Center
Sun 03:08:59 PM 39.1439 -76.4319 44° Northeast 457 526 24,000  Level Washington Center
Sun 03:10:00 PM 39.2342 -76.3150 45° Northeast 457 526 24,000  Level Washington Center
Sun 03:10:58 PM 39.3267 -76.2006 44° Northeast 457 526 24,000 -51 Level Washington Center
Sun 03:11:58 PM 39.4208 -76.0831 44° Northeast 457 526 23,900 -1,803 Descending Washington Center
Sun 03:14:01 PM 39.6167 -75.8333 44° Northeast 427 491 18,500 -2,678 Descending Philadelphia TRACON
Sun 03:14:55 PM 39.6833 -75.7333 49° Northeast 415 478 16,000 -2,650 Descending Philadelphia TRACON
Sun 03:16:01 PM 39.7667 -75.6333 43° Northeast 388 447 13,200 -1,429 Descending Philadelphia TRACON
Sun 03:17:01 PM 39.8500 -75.5500 38° Northeast 378 435 13,000 -100 Descending Philadelphia TRACON
Sun 03:18:01 PM 39.9333 -75.4667 37° Northeast 382 440 13,000  Level Philadelphia TRACON
Sun 03:19:07 PM 40.0333 -75.3833 33° Northeast 380 437 13,000  Level Philadelphia TRACON
Sun 03:20:07 PM 40.1167 -75.3000 37° Northeast 384 442 13,000 -476 Level Philadelphia TRACON
Sun 03:21:13 PM 40.2000 -75.2167 37° Northeast 316 364 12,000 -1,200 Descending Philadelphia TRACON
Sun 03:22:07 PM 40.2667 -75.1667 30° Northeast 324 373 10,600 -1,627 Descending Philadelphia TRACON
Sun 03:24:10 PM 40.4000 -75.0000 44° Northeast 302 348 7,200 -1,247 Descending New York TRACON
Sun 03:25:05 PM 40.4500 -74.9333 45° Northeast 297 342 6,900 -783 Descending New York TRACON
Sun 03:26:05 PM 40.5000 -74.8500 52° Northeast 294 338 5,700 -1,200 Descending New York TRACON
Sun 03:27:05 PM 40.5667 -74.7833 37° Northeast 281 323 4,500 -850 Descending New York TRACON
Sun 03:28:05 PM 40.6333 -74.7333 30° Northeast 272 313 4,000 -250 Descending New York TRACON
Sun 03:29:05 PM 40.7000 -74.6833 30° Northeast 281 323 4,000  Level New York TRACON
Sun 03:30:05 PM 40.7667 -74.6333 30° Northeast 273 314 4,000  Level New York TRACON
Sun 03:31:05 PM 40.8333 -74.5833 30° Northeast 274 315 4,000  Level New York TRACON
Sun 03:32:05 PM 40.9000 -74.5333 30° Northeast 271 312 4,000 -211 Level New York TRACON
Sun 03:32:59 PM 40.9333 -74.4833 49° Northeast 259 298 3,600 -526 Descending New York TRACON
Sun 03:33:59 PM 40.9833 -74.4167 45° Northeast 247 284 3,000 -300 Descending New York TRACON
Sun 03:34:59 PM 41.0167 -74.3333 62° Northeast 247 284 3,000  Level New York TRACON
Sun 03:35:59 PM 41.0167 -74.2500 90° East 215 247 3,000 -250 Level New York TRACON
Sun 03:36:59 PM 40.9833 -74.1833 124° Southeast 198 228 2,500 -500 Descending New York TRACON
Sun 03:37:59 PM 40.9667 -74.1333 114° Southeast 179 206 2,000 -550 Descending New York TRACON
Sun 03:38:59 PM 40.9333 -74.0833 131° Southeast 170 196 1,400 -550 Descending New York TRACON
Sun 03:39:59 PM 40.9000 -74.0500 143° Southeast 151 174 900 -550 Descending New York TRACON
Sun 03:40:59 PM 40.8667 -74.0667 201° Southwest 138 159 300 -600 Descending New York TRACON
Sun 03:42:00 PM 40.8500 -74.0500 152° Southeast  Level FlightAware Approximate
Sun 03:49:00 PM 40.8501 -74.0608 152° Southeast  Level Estimated
Sun 03:50:00 PM 40.8501 -74.0608 152° Southeast  Level Estimated
Sun 03:51:00 PM 40.8501 -74.0608 152° Southeast  Level Estimated
Sun 03:52:00 PM 40.8501 -74.0608 152° Southeast  Level Estimated
Sun 03:53:00 PM 40.8501 -74.0608 152° Southeast  Level Estimated
Sun 03:54:00 PM 40.8501 -74.0608 152° Southeast  Level Estimated
Sun 03:55:00 PM 40.8501 -74.0608 152° Southeast  Level Estimated
Sun 03:56:00 PM 40.8501 -74.0608 152° Southeast  Level Estimated

Login

Don't have an account? Register now (free) for customized features, flight alerts, and more!